createdAt,value
2023-04-16T00:00:35.929Z,3.85
2023-04-16T00:03:08.621Z,3.36
2023-04-16T00:05:41.110Z,3.35
2023-04-16T00:08:13.405Z,3.40
2023-04-16T00:10:45.663Z,3.27
2023-04-16T00:13:20.618Z,2.98
2023-04-16T00:15:52.871Z,3.37
2023-04-16T00:18:25.057Z,3.74
2023-04-16T00:20:57.246Z,3.33
2023-04-16T00:23:29.668Z,3.39
2023-04-16T00:26:02.060Z,3.11
2023-04-16T00:28:36.822Z,3.32
2023-04-16T00:31:09.159Z,3.10
2023-04-16T00:33:41.434Z,2.76
2023-04-16T00:36:14.035Z,2.81
2023-04-16T00:38:46.188Z,3.00
2023-04-16T00:41:18.407Z,2.91
2023-04-16T00:43:53.595Z,2.96
2023-04-16T00:46:27.697Z,3.27
2023-04-16T00:49:01.411Z,3.20
2023-04-16T00:51:34.623Z,3.54
2023-04-16T00:54:07.057Z,3.60
2023-04-16T00:56:40.722Z,3.61
2023-04-16T00:59:16.384Z,3.68
2023-04-16T01:01:48.654Z,3.84
2023-04-16T01:04:21.062Z,3.76
2023-04-16T01:06:53.531Z,3.95
2023-04-16T01:09:25.837Z,4.39
2023-04-16T01:11:58.124Z,4.11
2023-04-16T01:14:36.525Z,4.49
2023-04-16T01:17:08.900Z,4.26
2023-04-16T01:19:41.255Z,4.33
2023-04-16T01:22:16.522Z,4.23
2023-04-16T01:24:48.688Z,4.19
2023-04-16T01:27:20.873Z,4.16
2023-04-16T01:29:53.118Z,4.32
2023-04-16T01:32:25.505Z,4.81
2023-04-16T01:34:57.693Z,5.10
2023-04-16T01:37:32.510Z,5.12
2023-04-16T01:40:04.798Z,5.69
2023-04-16T01:42:37.038Z,5.60
2023-04-16T01:45:12.348Z,4.84
2023-04-16T01:47:45.095Z,4.83
2023-04-16T01:50:17.484Z,5.21
2023-04-16T01:52:52.415Z,5.41
2023-04-16T01:55:24.752Z,6.12
2023-04-16T01:57:56.889Z,5.96
2023-04-16T02:00:29.037Z,5.92
2023-04-16T02:03:01.665Z,5.71
2023-04-16T02:05:34.010Z,6.18
2023-04-16T02:08:09.279Z,7.01
2023-04-16T02:10:41.523Z,7.54
2023-04-16T02:13:14.004Z,7.72
2023-04-16T02:15:50.752Z,8.03
2023-04-16T02:18:23.225Z,7.92
2023-04-16T02:20:55.607Z,8.49
2023-04-16T02:23:31.033Z,8.92
2023-04-16T02:26:03.925Z,9.36
2023-04-16T02:28:36.134Z,9.66
2023-04-16T02:31:08.441Z,9.27
2023-04-16T02:33:40.666Z,9.67
2023-04-16T02:36:13.331Z,8.79
2023-04-16T02:38:48.063Z,9.31
2023-04-16T02:41:20.567Z,9.92
2023-04-16T02:43:52.832Z,9.27
2023-04-16T02:46:25.069Z,9.29
2023-04-16T02:48:57.273Z,9.56
2023-04-16T02:51:29.474Z,9.87
2023-04-16T02:54:04.130Z,9.71
2023-04-16T02:56:36.327Z,9.90
2023-04-16T02:59:08.693Z,10.44
2023-04-16T03:01:41.172Z,10.96
2023-04-16T03:04:13.601Z,10.89
2023-04-16T03:06:45.861Z,11.28
2023-04-16T03:09:20.700Z,11.30
2023-04-16T03:11:53.041Z,11.52
2023-04-16T03:14:25.328Z,11.61
2023-04-16T03:16:57.739Z,11.72
2023-04-16T03:19:29.976Z,12.47
2023-04-16T03:22:02.300Z,11.99
2023-04-16T03:24:37.802Z,12.34
2023-04-16T03:27:09.997Z,12.19
2023-04-16T03:29:42.231Z,12.43
2023-04-16T03:32:15.365Z,11.68
2023-04-16T03:34:47.652Z,11.74
2023-04-16T03:37:19.904Z,11.01
2023-04-16T03:39:54.773Z,11.42
2023-04-16T03:42:27.238Z,10.66
2023-04-16T03:44:59.617Z,11.04
2023-04-16T03:47:31.909Z,11.42
2023-04-16T03:50:04.192Z,11.44
2023-04-16T03:52:36.747Z,11.67
2023-04-16T03:55:12.426Z,11.38
2023-04-16T03:57:44.691Z,11.50
2023-04-16T04:00:17.293Z,11.81
2023-04-16T04:02:49.898Z,12.01
2023-04-16T04:05:22.254Z,12.15
2023-04-16T04:07:54.607Z,13.10
2023-04-16T04:10:29.462Z,12.74
2023-04-16T04:13:01.909Z,13.19
2023-04-16T04:15:34.099Z,13.20
2023-04-16T04:18:06.328Z,13.19
2023-04-16T04:20:38.576Z,13.82
2023-04-16T04:23:11.112Z,13.20
2023-04-16T04:25:46.145Z,13.29
2023-04-16T04:28:18.443Z,13.50
2023-04-16T04:30:50.693Z,13.32
2023-04-16T04:33:23.091Z,13.35
2023-04-16T04:35:55.889Z,13.13
2023-04-16T04:38:28.032Z,12.44
2023-04-16T04:41:04.352Z,12.00
2023-04-16T04:43:36.820Z,12.40
2023-04-16T04:46:09.226Z,12.80
2023-04-16T04:48:41.504Z,12.74
2023-04-16T04:51:13.791Z,12.68
2023-04-16T04:53:46.451Z,12.54
2023-04-16T04:56:21.468Z,12.42
2023-04-16T04:58:54.946Z,12.10
2023-04-16T05:01:27.097Z,12.79
2023-04-16T05:03:59.356Z,12.54
2023-04-16T05:06:31.605Z,12.47
2023-04-16T05:09:03.880Z,12.74
2023-04-16T05:11:38.901Z,13.20
2023-04-16T05:14:11.274Z,12.99
2023-04-16T05:16:43.498Z,13.39
2023-04-16T05:19:15.749Z,12.81
2023-04-16T05:21:48.003Z,12.94
2023-04-16T05:24:20.273Z,13.39
2023-04-16T05:26:55.033Z,12.92
2023-04-16T05:29:27.403Z,13.37
2023-04-16T05:31:59.868Z,13.90
2023-04-16T05:34:32.064Z,14.03
2023-04-16T05:37:04.275Z,13.94
2023-04-16T05:39:36.450Z,13.79
2023-04-16T05:42:11.494Z,13.61
2023-04-16T05:44:45.137Z,13.77
2023-04-16T05:47:17.663Z,14.21
2023-04-16T05:49:49.952Z,13.79
2023-04-16T05:52:22.259Z,14.11
2023-04-16T05:54:54.508Z,14.11
2023-04-16T05:57:29.478Z,13.83
2023-04-16T06:00:01.765Z,14.11
2023-04-16T06:02:34.786Z,13.64
2023-04-16T06:05:07.227Z,13.05
2023-04-16T06:07:39.498Z,13.90
2023-04-16T06:10:12.559Z,13.81
2023-04-16T06:12:47.495Z,14.16
2023-04-16T06:15:19.871Z,14.43
2023-04-16T06:17:52.117Z,14.26
2023-04-16T06:20:24.299Z,14.15
2023-04-16T06:22:56.786Z,14.70
2023-04-16T06:25:29.190Z,15.18
2023-04-16T06:28:04.063Z,14.74
2023-04-16T06:30:36.711Z,15.21
2023-04-16T06:33:09.116Z,15.81
2023-04-16T06:35:41.435Z,15.71
2023-04-16T06:38:13.664Z,16.38
2023-04-16T06:40:46.182Z,16.42
2023-04-16T06:43:21.859Z,16.91
2023-04-16T06:45:54.093Z,16.82
2023-04-16T06:48:26.356Z,16.86
2023-04-16T06:50:59.580Z,16.92
2023-04-16T06:53:31.956Z,17.06
2023-04-16T06:56:04.170Z,16.93
2023-04-16T06:58:38.981Z,16.36
2023-04-16T07:01:11.390Z,15.95
2023-04-16T07:03:44.246Z,16.49
2023-04-16T07:06:16.532Z,16.44
2023-04-16T07:08:48.731Z,16.69
2023-04-16T07:11:21.169Z,17.60
2023-04-16T07:13:57.064Z,18.31
2023-04-16T07:16:29.472Z,19.91
2023-04-16T07:19:01.730Z,20.67
2023-04-16T07:21:34.461Z,20.01
2023-04-16T07:24:07.079Z,20.01
2023-04-16T07:26:39.352Z,18.76
2023-04-16T07:29:14.261Z,17.06
2023-04-16T07:31:46.955Z,16.76
2023-04-16T07:34:19.351Z,16.63
2023-04-16T07:36:51.628Z,15.76
2023-04-16T07:39:23.866Z,15.72
2023-04-16T07:41:56.322Z,15.22
2023-04-16T07:44:31.278Z,15.38
2023-04-16T07:47:05.412Z,15.24
2023-04-16T07:49:38.171Z,15.91
2023-04-16T07:52:10.676Z,16.01
2023-04-16T07:54:42.846Z,15.48
2023-04-16T07:57:16.667Z,14.76
2023-04-16T07:59:51.615Z,14.64
2023-04-16T08:02:24.241Z,14.20
2023-04-16T08:04:56.605Z,13.94
2023-04-16T08:07:28.932Z,13.89
2023-04-16T08:10:01.151Z,13.86
2023-04-16T08:12:33.967Z,13.57
2023-04-16T08:15:09.784Z,13.34
2023-04-16T08:17:42.046Z,12.92
2023-04-16T08:20:17.025Z,11.82
2023-04-16T08:22:51.875Z,11.57
2023-04-16T08:25:24.905Z,11.58
2023-04-16T08:27:57.071Z,12.04
2023-04-16T08:30:32.099Z,11.21
2023-04-16T08:33:04.698Z,11.74
2023-04-16T08:35:37.595Z,11.24
2023-04-16T08:38:10.331Z,10.67
2023-04-16T08:40:44.009Z,10.77
2023-04-16T08:43:18.599Z,11.17
2023-04-16T08:45:56.468Z,10.92
2023-04-16T08:48:29.781Z,10.60
2023-04-16T08:51:05.549Z,10.13
2023-04-16T08:53:46.812Z,9.35
2023-04-16T08:56:24.042Z,9.15
2023-04-16T08:59:02.154Z,9.44
2023-04-16T09:01:39.190Z,8.93
2023-04-16T09:04:12.137Z,9.99
2023-04-16T09:06:47.530Z,9.00
2023-04-16T09:09:22.149Z,9.21
2023-04-16T09:11:56.397Z,8.61
2023-04-16T09:14:28.646Z,8.89
2023-04-16T09:17:04.943Z,9.09
2023-04-16T09:19:37.400Z,9.06
2023-04-16T09:22:10.170Z,9.03
2023-04-16T09:24:42.474Z,8.11
2023-04-16T09:27:16.709Z,8.24
2023-04-16T09:29:48.966Z,8.45
2023-04-16T09:32:30.392Z,8.59
2023-04-16T09:35:04.339Z,7.85
2023-04-16T09:37:36.514Z,8.53
2023-04-16T09:40:10.350Z,9.60
2023-04-16T09:42:42.838Z,10.07
2023-04-16T09:45:15.862Z,9.74
2023-04-16T09:47:50.714Z,9.16
2023-04-16T09:50:24.030Z,9.22
2023-04-16T09:52:56.403Z,9.52
2023-04-16T09:55:31.864Z,9.97
2023-04-16T09:58:05.237Z,10.18
2023-04-16T10:00:42.287Z,11.07
2023-04-16T10:03:18.766Z,11.00
2023-04-16T10:05:51.012Z,10.37
2023-04-16T10:08:23.299Z,10.35
2023-04-16T10:10:56.806Z,10.74
2023-04-16T10:13:31.366Z,10.34
2023-04-16T10:16:04.462Z,10.60
2023-04-16T10:18:41.725Z,11.25
2023-04-16T10:21:15.637Z,13.27
2023-04-16T10:23:49.830Z,13.71
2023-04-16T10:26:23.529Z,14.60
2023-04-16T10:28:56.914Z,14.42
2023-04-16T10:31:31.273Z,14.54
2023-04-16T10:34:07.571Z,14.03
2023-04-16T10:36:42.351Z,14.31
2023-04-16T10:39:17.224Z,14.21
2023-04-16T10:41:50.229Z,13.72
2023-04-16T10:44:24.231Z,13.38
2023-04-16T10:47:00.744Z,13.40
2023-04-16T10:49:35.561Z,12.91
2023-04-16T10:52:19.098Z,13.49
2023-04-16T10:54:52.031Z,13.98
2023-04-16T10:57:25.109Z,14.59
2023-04-16T11:00:02.704Z,14.89
2023-04-16T11:02:35.270Z,16.14
2023-04-16T11:05:10.765Z,16.27
2023-04-16T11:07:52.764Z,16.36
2023-04-16T11:10:25.005Z,15.48
2023-04-16T11:12:59.959Z,16.06
2023-04-16T11:15:33.870Z,15.21
2023-04-16T11:18:07.254Z,15.06
2023-04-16T11:20:46.158Z,15.43
2023-04-16T11:23:18.470Z,15.70
2023-04-16T11:25:51.914Z,15.38
2023-04-16T11:28:24.088Z,15.40
2023-04-16T11:30:56.377Z,14.57
2023-04-16T11:33:30.185Z,14.65
2023-04-16T11:36:05.065Z,14.36
2023-04-16T11:38:38.767Z,14.90
2023-04-16T11:41:11.208Z,15.44
2023-04-16T11:43:43.632Z,16.24
2023-04-16T11:46:26.999Z,17.26
2023-04-16T11:49:00.068Z,16.39
2023-04-16T11:51:34.946Z,16.63
2023-04-16T11:54:10.363Z,16.86
2023-04-16T11:56:51.039Z,16.17
2023-04-16T11:59:25.767Z,16.75
2023-04-16T12:01:59.573Z,16.34
2023-04-16T12:04:32.272Z,16.36
2023-04-16T12:07:15.808Z,14.64
2023-04-16T12:09:48.857Z,15.54
2023-04-16T12:12:31.670Z,15.57
2023-04-16T12:15:05.956Z,15.94
2023-04-16T12:17:39.946Z,14.82
2023-04-16T12:20:15.569Z,14.61
2023-04-16T12:22:54.053Z,15.20
2023-04-16T12:25:29.330Z,14.31
2023-04-16T12:28:02.361Z,13.62
2023-04-16T12:30:34.730Z,13.19
2023-04-16T12:33:21.451Z,13.29
2023-04-16T12:35:53.803Z,13.64
2023-04-16T12:38:28.837Z,13.31
2023-04-16T12:41:02.484Z,13.18
2023-04-16T12:43:35.041Z,12.53
2023-04-16T12:46:07.305Z,12.31
2023-04-16T12:48:39.527Z,12.99
2023-04-16T12:51:11.714Z,12.69
2023-04-16T12:53:46.557Z,13.74
2023-04-16T12:56:19.021Z,13.41
2023-04-16T12:58:52.146Z,14.01
2023-04-16T13:01:24.806Z,14.16
2023-04-16T13:03:57.449Z,14.14
2023-04-16T13:06:30.108Z,15.39
2023-04-16T13:09:07.779Z,16.07
2023-04-16T13:11:40.217Z,16.62
2023-04-16T13:14:12.524Z,16.64
2023-04-16T13:16:44.817Z,17.24
2023-04-16T13:19:19.299Z,16.73
2023-04-16T13:21:51.615Z,16.59
2023-04-16T13:24:26.390Z,17.11
2023-04-16T13:26:59.539Z,17.36
2023-04-16T13:29:31.795Z,16.99
2023-04-16T13:32:04.167Z,17.35
2023-04-16T13:34:36.809Z,17.44
2023-04-16T13:37:09.118Z,17.34
2023-04-16T13:39:43.923Z,17.56
2023-04-16T13:42:16.997Z,17.09
2023-04-16T13:44:53.191Z,16.88
2023-04-16T13:47:25.761Z,17.20
2023-04-16T13:49:58.133Z,16.89
2023-04-16T13:52:30.380Z,16.66
2023-04-16T13:55:05.220Z,17.09
2023-04-16T13:57:37.504Z,16.72
2023-04-16T14:00:13.345Z,16.37
2023-04-16T14:02:46.548Z,15.95
2023-04-16T14:05:19.640Z,15.54
2023-04-16T14:07:51.892Z,14.83
2023-04-16T14:10:26.803Z,14.99
2023-04-16T14:12:59.266Z,14.76
2023-04-16T14:15:31.770Z,14.74
2023-04-16T14:18:04.188Z,14.46
2023-04-16T14:20:36.436Z,14.11
2023-04-16T14:23:08.664Z,14.11
2023-04-16T14:25:43.726Z,13.62
2023-04-16T14:28:16.084Z,13.56
2023-04-16T14:30:48.364Z,14.46
2023-04-16T14:33:20.848Z,14.61
2023-04-16T14:35:53.177Z,14.13
2023-04-16T14:38:25.476Z,14.25
2023-04-16T14:41:00.556Z,13.63
2023-04-16T14:43:33.150Z,14.26
2023-04-16T14:46:06.712Z,13.93
2023-04-16T14:48:39.069Z,13.64
2023-04-16T14:51:11.377Z,14.47
2023-04-16T14:53:43.641Z,14.94
2023-04-16T14:56:18.493Z,14.77
2023-04-16T14:58:50.810Z,15.32
2023-04-16T15:01:23.249Z,14.38
2023-04-16T15:03:56.423Z,14.10
2023-04-16T15:06:28.877Z,14.47
2023-04-16T15:09:01.147Z,14.45
2023-04-16T15:11:36.009Z,14.31
2023-04-16T15:14:08.503Z,15.07
2023-04-16T15:16:41.245Z,14.80
2023-04-16T15:19:13.531Z,14.92
2023-04-16T15:21:48.744Z,14.56
2023-04-16T15:24:21.340Z,15.54
2023-04-16T15:26:56.367Z,15.86
2023-04-16T15:29:28.755Z,15.56
2023-04-16T15:32:01.031Z,15.95
2023-04-16T15:34:33.277Z,16.83
2023-04-16T15:37:05.535Z,17.09
2023-04-16T15:39:37.843Z,17.17
2023-04-16T15:42:13.293Z,17.34
2023-04-16T15:44:45.668Z,17.10
2023-04-16T15:47:17.914Z,17.26
2023-04-16T15:49:50.409Z,18.23
2023-04-16T15:52:22.866Z,17.52
2023-04-16T15:54:55.213Z,17.89
2023-04-16T15:57:30.171Z,18.74
2023-04-16T16:02:44.610Z,18.62
2023-04-16T16:05:18.872Z,17.55
2023-04-16T16:07:51.250Z,18.26
2023-04-16T16:10:23.504Z,18.49
2023-04-16T16:13:02.025Z,20.59
2023-04-16T16:15:34.301Z,18.80
2023-04-16T16:18:06.752Z,18.44
2023-04-16T16:20:40.729Z,18.39
2023-04-16T16:23:13.269Z,17.84
2023-04-16T16:25:45.631Z,18.29
2023-04-16T16:28:20.816Z,18.94
2023-04-16T16:30:55.813Z,18.46
2023-04-16T16:33:28.836Z,19.50
2023-04-16T16:36:01.266Z,19.25
2023-04-16T16:38:33.511Z,18.89
2023-04-16T16:41:05.991Z,18.46
2023-04-16T16:43:40.884Z,18.76
2023-04-16T16:46:13.173Z,18.49
2023-04-16T16:48:45.732Z,18.85
2023-04-16T16:51:19.118Z,19.79
2023-04-16T16:53:51.406Z,18.64
2023-04-16T16:56:23.601Z,19.14
2023-04-16T16:58:58.549Z,19.12
2023-04-16T17:01:31.628Z,19.55
2023-04-16T17:04:04.523Z,20.14
2023-04-16T17:06:36.978Z,19.16
2023-04-16T17:09:09.956Z,19.39
2023-04-16T17:11:42.573Z,19.72
2023-04-16T17:14:17.403Z,19.24
2023-04-16T17:16:50.062Z,20.11
2023-04-16T17:19:22.354Z,20.26
2023-04-16T17:21:54.799Z,19.64
2023-04-16T17:24:27.052Z,19.62
2023-04-16T17:26:59.272Z,20.48
2023-04-16T17:29:34.477Z,20.07
2023-04-16T17:32:07.487Z,19.88
2023-04-16T17:34:39.805Z,20.06
2023-04-16T17:37:12.079Z,20.68
2023-04-16T17:39:44.281Z,20.04
2023-04-16T17:42:16.667Z,21.08
2023-04-16T17:44:52.044Z,20.76
2023-04-16T17:47:24.289Z,20.56
2023-04-16T17:49:57.561Z,20.74
2023-04-16T17:52:29.902Z,20.88
2023-04-16T17:55:03.982Z,21.65
2023-04-16T17:57:36.670Z,21.14
2023-04-16T18:00:14.405Z,21.09
2023-04-16T18:02:47.063Z,20.89
2023-04-16T18:05:19.904Z,21.29
2023-04-16T18:07:52.183Z,22.11
2023-04-16T18:10:24.700Z,23.90
2023-04-16T18:12:56.996Z,26.06
2023-04-16T18:15:31.899Z,22.53
2023-04-16T18:18:04.133Z,23.39
2023-04-16T18:20:36.615Z,23.16
2023-04-16T18:23:08.992Z,23.63
2023-04-16T18:25:41.136Z,22.96
2023-04-16T18:28:14.272Z,23.22
2023-04-16T18:30:49.653Z,23.73
2023-04-16T18:33:48.922Z,24.22
2023-04-16T18:36:14.747Z,24.13
2023-04-16T18:39:00.295Z,25.31
2023-04-16T18:41:34.440Z,25.89
2023-04-16T18:44:06.644Z,25.92
2023-04-16T18:46:41.472Z,25.50
2023-04-16T18:49:13.871Z,26.46
2023-04-16T18:51:46.189Z,26.27
2023-04-16T18:54:20.200Z,25.96
2023-04-16T18:56:52.641Z,26.55
2023-04-16T18:59:24.829Z,26.49
2023-04-16T19:02:00.098Z,26.11
2023-04-16T19:04:32.465Z,27.42
2023-04-16T19:07:04.663Z,27.96
2023-04-16T19:09:36.930Z,27.56
2023-04-16T19:12:09.917Z,26.78
2023-04-16T19:14:42.218Z,26.08
2023-04-16T19:17:17.111Z,26.78
2023-04-16T19:19:49.361Z,26.78
2023-04-16T19:22:21.728Z,27.34
2023-04-16T19:24:54.845Z,26.94
2023-04-16T19:27:27.071Z,26.81
2023-04-16T19:29:59.318Z,26.65
2023-04-16T19:32:34.263Z,27.82
2023-04-16T19:35:06.715Z,27.13
2023-04-16T19:37:38.911Z,27.09
2023-04-16T19:40:12.625Z,27.05
2023-04-16T19:42:45.520Z,27.53
2023-04-16T19:45:18.493Z,26.96
2023-04-16T19:47:53.361Z,27.28
2023-04-16T19:50:25.913Z,27.39
2023-04-16T19:52:58.405Z,28.02
2023-04-16T19:55:30.606Z,28.16
2023-04-16T19:58:06.383Z,28.74
2023-04-16T20:00:42.180Z,26.75
2023-04-16T20:03:17.370Z,27.32
2023-04-16T20:05:52.436Z,28.92
2023-04-16T20:08:24.669Z,28.20
2023-04-16T20:10:57.617Z,27.71
2023-04-16T20:13:30.051Z,28.96
2023-04-16T20:16:02.292Z,29.14
2023-04-16T20:18:41.561Z,29.54
2023-04-16T20:21:15.050Z,29.61
2023-04-16T20:23:47.867Z,29.65
2023-04-16T20:26:21.046Z,29.21
2023-04-16T20:28:53.237Z,29.06
2023-04-16T20:31:25.533Z,30.12
2023-04-16T20:34:00.769Z,30.25
2023-04-16T20:36:33.073Z,30.39
2023-04-16T20:39:07.299Z,30.73
2023-04-16T20:41:43.983Z,31.94
2023-04-16T20:44:18.332Z,32.35
2023-04-16T20:46:51.134Z,33.08
2023-04-16T20:49:26.076Z,31.46
2023-04-16T20:51:58.340Z,32.01
2023-04-16T20:54:30.611Z,31.81
2023-04-16T20:57:04.818Z,32.17
2023-04-16T20:59:37.475Z,32.08
2023-04-16T21:02:10.141Z,31.33
2023-04-16T21:04:45.173Z,32.39
2023-04-16T21:07:17.554Z,32.69
2023-04-16T21:09:49.951Z,32.47
2023-04-16T21:12:22.199Z,32.96
2023-04-16T21:14:54.412Z,33.98
2023-04-16T21:17:26.668Z,33.86
2023-04-16T21:20:01.509Z,33.88
2023-04-16T21:22:33.740Z,34.34
2023-04-16T21:25:05.954Z,33.91
2023-04-16T21:27:38.186Z,33.08
2023-04-16T21:30:12.058Z,32.99
2023-04-16T21:32:44.380Z,31.74
2023-04-16T21:35:19.311Z,31.74
2023-04-16T21:37:51.589Z,30.81
2023-04-16T21:40:23.996Z,31.32
2023-04-16T21:42:56.245Z,29.46
2023-04-16T21:45:30.530Z,29.97
2023-04-16T21:48:02.987Z,29.68
2023-04-16T21:50:37.984Z,29.49
2023-04-16T21:53:10.517Z,30.69
2023-04-16T21:55:43.085Z,29.21
2023-04-16T21:58:15.852Z,28.43
2023-04-16T22:00:48.106Z,29.15
2023-04-16T22:03:26.500Z,30.13
2023-04-16T22:06:05.519Z,30.61
2023-04-16T22:08:38.122Z,30.99
2023-04-16T22:11:10.425Z,30.94
2023-04-16T22:13:42.782Z,32.26
2023-04-16T22:16:15.805Z,32.61
2023-04-16T22:18:48.043Z,33.73
2023-04-16T22:21:22.829Z,34.31
2023-04-16T22:23:55.050Z,32.97
2023-04-16T22:26:27.313Z,32.30
2023-04-16T22:28:59.580Z,32.68
2023-04-16T22:31:31.891Z,32.79
2023-04-16T22:34:04.131Z,32.60
2023-04-16T22:36:38.984Z,33.04
2023-04-16T22:39:11.583Z,33.14
2023-04-16T22:41:44.137Z,33.07
2023-04-16T22:44:16.359Z,32.56
2023-04-16T22:46:48.933Z,35.00
2023-04-16T22:49:21.228Z,34.54
2023-04-16T22:51:56.266Z,34.96
2023-04-16T22:54:32.541Z,34.46
2023-04-16T22:57:04.914Z,35.52
2023-04-16T22:59:37.093Z,33.29
2023-04-16T23:02:09.583Z,32.87
2023-04-16T23:04:41.805Z,34.21
2023-04-16T23:07:16.646Z,35.26
2023-04-16T23:09:48.881Z,35.36
2023-04-16T23:12:21.220Z,35.45
2023-04-16T23:14:53.470Z,35.29
2023-04-16T23:17:25.788Z,36.80
2023-04-16T23:19:58.007Z,34.99
2023-04-16T23:22:32.973Z,35.48
2023-04-16T23:25:05.211Z,34.27
2023-04-16T23:27:37.493Z,33.26
2023-04-16T23:30:11.140Z,34.51
2023-04-16T23:32:43.597Z,35.23
2023-04-16T23:35:20.525Z,34.42
2023-04-16T23:37:55.436Z,34.09
2023-04-16T23:40:27.709Z,36.05
2023-04-16T23:43:00.033Z,36.24
2023-04-16T23:45:32.275Z,36.98
2023-04-16T23:48:04.669Z,37.36
2023-04-16T23:50:36.987Z,36.87
2023-04-16T23:53:11.817Z,35.49
2023-04-16T23:55:44.060Z,35.87
2023-04-16T23:58:16.286Z,35.59
